Time,TemperatureF,DewpointF,PressureIn,WindDirection,WindDirectionDegrees,WindSpeedMPH,WindSpeedGustMPH,Humidity,HourlyPrecipIn,Conditions,Clouds,dailyrainin,SoftwareType,DateUTC
2013-03-15 00:09:00,31.8,24.8,30.14,WNW,293,0.0,0.0,75,0.00,,,0.00,WUHU21623XXSP,2013-03-15 04:09:00,
2013-03-15 01:09:00,32.4,26.3,30.11,WSW,248,0.0,0.0,78,0.00,,,0.00,WUHU21623XXSP,2013-03-15 05:09:00,
2013-03-15 02:09:00,30.6,24.6,30.09,WSW,248,0.0,0.0,78,0.00,,,0.00,WUHU21623XXSP,2013-03-15 06:09:00,
2013-03-15 03:09:00,29.8,24.1,30.08,WSW,248,0.0,0.0,79,0.00,,,0.00,WUHU21623XXSP,2013-03-15 07:09:00,
2013-03-15 04:09:00,29.5,24.4,30.05,WSW,248,0.0,0.0,81,0.00,,,0.00,WUHU21623XXSP,2013-03-15 08:09:00,
2013-03-15 05:09:00,28.9,23.8,30.03,WSW,248,0.0,0.0,81,0.00,,,0.00,WUHU21623XXSP,2013-03-15 09:09:00,
2013-03-15 06:09:00,28.6,23.8,30.01,WSW,248,0.0,0.0,82,0.00,,,0.00,WUHU21623XXSP,2013-03-15 10:09:00,
2013-03-15 07:54:00,28.2,23.7,30.00,WSW,247,0.0,0.0,83,0.00,,,0.00,WUHU21623XXSP,2013-03-15 11:54:00,
2013-03-15 07:59:00,28.2,23.7,30.00,WSW,247,0.0,0.0,83,0.00,,,0.18,WUHU21623XXSP,2013-03-15 11:59:00,
2013-03-15 08:04:00,28.2,23.7,30.00,WSW,247,0.0,0.0,83,0.00,,,0.18,WUHU21623XXSP,2013-03-15 12:04:00,
2013-03-15 08:09:00,28.2,23.7,30.00,WSW,247,0.0,0.0,83,0.00,,,0.18,WUHU21623XXSP,2013-03-15 12:09:00,
2013-03-15 08:14:00,28.2,23.7,30.00,WSW,247,0.0,0.0,83,0.00,,,0.18,WUHU21623XXSP,2013-03-15 12:14:00,
2013-03-15 08:19:00,28.4,23.9,30.00,WSW,247,0.0,0.0,83,0.00,,,0.18,WUHU21623XXSP,2013-03-15 12:19:00,
2013-03-15 08:24:00,28.6,24.3,30.01,WSW,247,0.0,0.0,84,0.00,,,0.18,WUHU21623XXSP,2013-03-15 12:24:00,
2013-03-15 08:29:00,28.6,24.3,30.01,WSW,247,0.0,0.0,84,0.00,,,0.18,WUHU21623XXSP,2013-03-15 12:29:00,
2013-03-15 08:34:00,28.8,24.5,30.01,SW,225,0.0,0.0,84,0.00,,,0.18,WUHU21623XXSP,2013-03-15 12:34:00,
2013-03-15 08:39:00,28.9,24.7,30.00,SW,225,0.0,0.0,84,0.00,,,0.18,WUHU21623XXSP,2013-03-15 12:39:00,
2013-03-15 08:44:00,29.3,25.1,30.01,SW,225,0.0,0.0,84,0.00,,,0.18,WUHU21623XXSP,2013-03-15 12:44:00,
2013-03-15 08:49:00,29.3,25.1,30.01,SW,225,0.0,0.0,84,0.00,,,0.18,WUHU21623XXSP,2013-03-15 12:49:00,
2013-03-15 08:54:00,29.8,25.6,30.01,SW,225,0.0,0.0,84,0.00,,,0.18,WUHU21623XXSP,2013-03-15 12:54:00,
2013-03-15 08:59:00,30.0,26.1,30.00,SW,225,0.0,0.0,85,0.00,,,0.18,WUHU21623XXSP,2013-03-15 12:59:00,
2013-03-15 09:04:00,30.2,26.2,30.00,SW,225,0.0,0.0,85,0.00,,,0.18,WUHU21623XXSP,2013-03-15 13:04:00,
2013-03-15 09:09:00,30.7,26.8,30.00,WSW,247,2.7,2.7,85,0.00,,,0.18,WUHU21623XXSP,2013-03-15 13:09:00,
2013-03-15 09:14:00,30.9,27.0,30.00,WSW,247,0.0,2.7,85,0.00,,,0.18,WUHU21623XXSP,2013-03-15 13:14:00,
2013-03-15 09:19:00,31.3,27.3,29.99,West,270,0.0,2.7,85,0.00,,,0.18,WUHU21623XXSP,2013-03-15 13:19:00,
2013-03-15 09:24:00,31.8,27.9,30.00,SW,225,0.0,0.0,85,0.00,,,0.18,WUHU21623XXSP,2013-03-15 13:24:00,
2013-03-15 09:29:00,31.8,27.9,29.99,SW,225,0.0,0.0,85,0.00,,,0.18,WUHU21623XXSP,2013-03-15 13:29:00,
2013-03-15 09:34:00,32.2,28.2,30.00,WSW,247,1.1,1.1,85,0.00,,,0.18,WUHU21623XXSP,2013-03-15 13:34:00,
2013-03-15 09:39:00,32.9,28.6,29.99,WSW,247,0.0,1.3,84,0.00,,,0.18,WUHU21623XXSP,2013-03-15 13:39:00,
2013-03-15 09:44:00,33.4,29.3,29.99,SW,225,1.3,1.3,85,0.00,,,0.18,WUHU21623XXSP,2013-03-15 13:44:00,
2013-03-15 09:49:00,33.6,29.5,29.99,SW,225,0.0,1.3,85,0.00,,,0.18,WUHU21623XXSP,2013-03-15 13:49:00,
2013-03-15 09:54:00,34.3,29.9,29.99,West,270,1.3,1.3,84,0.00,,,0.18,WUHU21623XXSP,2013-03-15 13:54:00,
2013-03-15 09:59:00,34.3,29.9,29.99,NW,315,0.0,1.3,84,0.00,,,0.18,WUHU21623XXSP,2013-03-15 13:59:00,
2013-03-15 10:04:00,34.9,30.2,29.98,WSW,247,0.4,0.9,83,0.00,,,0.18,WUHU21623XXSP,2013-03-15 14:04:00,
2013-03-15 10:09:00,35.1,30.3,29.98,West,270,0.0,1.6,83,0.00,,,0.18,WUHU21623XXSP,2013-03-15 14:09:00,
2013-03-15 10:14:00,35.4,30.7,29.98,SW,225,1.1,1.6,83,0.00,,,0.18,WUHU21623XXSP,2013-03-15 14:14:00,
2013-03-15 10:19:00,35.8,31.1,29.98,West,270,0.0,1.6,83,0.00,,,0.18,WUHU21623XXSP,2013-03-15 14:19:00,
2013-03-15 10:24:00,36.1,31.1,29.98,West,270,0.0,1.6,82,0.00,,,0.18,WUHU21623XXSP,2013-03-15 14:24:00,
2013-03-15 10:29:00,36.1,30.8,29.98,SSE,157,0.0,0.0,81,0.00,,,0.18,WUHU21623XXSP,2013-03-15 14:29:00,
2013-03-15 10:34:00,36.3,31.0,29.98,WSW,247,0.7,0.7,81,0.00,,,0.18,WUHU21623XXSP,2013-03-15 14:34:00,
2013-03-15 10:39:00,36.7,31.4,29.98,NW,315,1.1,1.1,81,0.00,,,0.18,WUHU21623XXSP,2013-03-15 14:39:00,
2013-03-15 10:44:00,37.0,31.7,29.98,SW,225,0.0,1.1,81,0.00,,,0.18,WUHU21623XXSP,2013-03-15 14:44:00,
2013-03-15 10:49:00,37.2,31.9,29.98,West,270,0.0,1.1,81,0.00,,,0.18,WUHU21623XXSP,2013-03-15 14:49:00,
2013-03-15 10:54:00,37.4,31.8,29.98,SW,225,1.8,2.0,80,0.00,,,0.18,WUHU21623XXSP,2013-03-15 14:54:00,
2013-03-15 10:59:00,37.8,32.2,29.99,West,281,2.8,3.1,80,0.00,,,0.18,WUHU21623XXSP,2013-03-15 14:59:00,
2013-03-15 11:04:00,37.6,32.0,29.99,West,270,2.7,3.1,80,0.00,,,0.18,WUHU21623XXSP,2013-03-15 15:04:00,
2013-03-15 11:09:00,37.5,31.9,29.98,West,279,2.2,2.7,80,0.00,,,0.18,WUHU21623XXSP,2013-03-15 15:09:00,
2013-03-15 11:14:00,37.2,31.3,29.98,NW,315,0.0,2.7,79,0.00,,,0.18,WUHU21623XXSP,2013-03-15 15:14:00,
2013-03-15 11:19:00,37.1,31.2,29.98,NW,315,0.0,1.3,79,0.00,,,0.18,WUHU21623XXSP,2013-03-15 15:19:00,
2013-03-15 11:24:00,36.8,30.9,29.98,NW,315,1.3,1.3,79,0.00,,,0.18,WUHU21623XXSP,2013-03-15 15:24:00,
2013-03-15 11:29:00,36.7,30.8,29.98,WNW,292,1.3,1.3,79,0.00,,,0.18,WUHU21623XXSP,2013-03-15 15:29:00,
2013-03-15 11:34:00,36.7,30.8,29.97,West,270,6.9,6.9,79,0.00,,,0.18,WUHU21623XXSP,2013-03-15 15:34:00,
2013-03-15 11:39:00,36.5,30.6,29.97,WNW,292,0.0,6.9,79,0.00,,,0.18,WUHU21623XXSP,2013-03-15 15:39:00,
2013-03-15 11:44:00,36.3,30.2,29.97,WNW,292,0.0,6.9,78,0.00,,,0.18,WUHU21623XXSP,2013-03-15 15:44:00,
2013-03-15 11:49:00,36.1,29.9,29.97,West,270,0.0,0.7,78,0.00,,,0.18,WUHU21623XXSP,2013-03-15 15:49:00,
2013-03-15 11:54:00,35.8,29.6,29.97,WSW,247,5.1,5.1,78,0.00,,,0.18,WUHU21623XXSP,2013-03-15 15:54:00,
2013-03-15 11:59:00,35.5,29.4,29.97,WSW,247,5.6,5.6,78,0.00,,,0.18,WUHU21623XXSP,2013-03-15 15:59:00,
2013-03-15 12:04:00,35.7,29.5,29.97,WNW,291,6.0,6.3,78,0.00,,,0.18,WUHU21623XXSP,2013-03-15 16:04:00,
2013-03-15 12:09:00,35.4,28.9,29.96,WNW,292,0.0,6.3,77,0.00,,,0.18,WUHU21623XXSP,2013-03-15 16:09:00,
2013-03-15 12:14:00,35.4,28.9,29.96,West,270,1.3,2.0,77,0.00,,,0.18,WUHU21623XXSP,2013-03-15 16:14:00,
2013-03-15 12:19:00,35.2,28.8,29.96,NW,315,0.9,1.3,77,0.00,,,0.18,WUHU21623XXSP,2013-03-15 16:19:00,
2013-03-15 12:24:00,35.2,28.7,29.96,WSW,247,0.9,1.3,77,0.00,,,0.18,WUHU21623XXSP,2013-03-15 16:24:00,
2013-03-15 12:29:00,35.2,28.7,29.96,NW,315,3.1,3.1,77,0.00,,,0.18,WUHU21623XXSP,2013-03-15 16:29:00,
2013-03-15 12:34:00,35.4,28.6,29.96,West,270,0.0,3.1,76,0.00,,,0.18,WUHU21623XXSP,2013-03-15 16:34:00,
2013-03-15 12:39:00,35.5,29.0,29.96,West,270,2.2,3.1,77,0.00,,,0.18,WUHU21623XXSP,2013-03-15 16:39:00,
2013-03-15 12:44:00,35.7,29.2,29.96,NW,315,2.7,2.7,77,0.00,,,0.18,WUHU21623XXSP,2013-03-15 16:44:00,
2013-03-15 12:49:00,36.0,28.9,29.96,WNW,292,1.8,2.7,75,0.00,,,0.18,WUHU21623XXSP,2013-03-15 16:49:00,
2013-03-15 12:54:00,35.8,28.7,29.96,West,270,2.7,2.7,75,0.00,,,0.18,WUHU21623XXSP,2013-03-15 16:54:00,
2013-03-15 12:59:00,35.9,28.7,29.96,West,270,2.0,2.7,75,0.00,,,0.18,WUHU21623XXSP,2013-03-15 16:59:00,
2013-03-15 13:04:00,35.9,28.8,29.96,NW,314,2.8,3.1,75,0.00,,,0.18,WUHU21623XXSP,2013-03-15 17:04:00,
2013-03-15 13:09:00,36.1,28.6,29.96,NW,315,0.0,3.1,74,0.00,,,0.18,WUHU21623XXSP,2013-03-15 17:09:00,
2013-03-15 13:14:00,35.9,28.5,29.95,NW,315,1.1,1.1,74,0.00,,,0.18,WUHU21623XXSP,2013-03-15 17:14:00,
2013-03-15 13:19:00,36.0,28.6,29.95,NW,315,3.1,3.1,74,0.00,,,0.18,WUHU21623XXSP,2013-03-15 17:19:00,
2013-03-15 13:24:00,36.3,28.9,29.94,NW,315,3.1,3.1,74,0.00,,,0.18,WUHU21623XXSP,2013-03-15 17:24:00,
2013-03-15 13:29:00,36.2,28.8,29.94,SW,225,0.0,3.1,74,0.00,,,0.18,WUHU21623XXSP,2013-03-15 17:29:00,
2013-03-15 13:34:00,36.5,29.0,29.94,NW,312,2.2,2.2,74,0.00,,,0.18,WUHU21623XXSP,2013-03-15 17:34:00,
2013-03-15 13:39:00,36.6,29.2,29.94,WSW,247,5.1,5.1,74,0.00,,,0.18,WUHU21623XXSP,2013-03-15 17:39:00,
2013-03-15 13:44:00,36.8,29.3,29.94,WNW,292,1.8,5.1,74,0.00,,,0.18,WUHU21623XXSP,2013-03-15 17:44:00,
2013-03-15 13:49:00,36.9,29.1,29.93,West,270,1.8,1.8,73,0.00,,,0.18,WUHU21623XXSP,2013-03-15 17:49:00,
2013-03-15 13:54:00,37.2,29.4,29.93,West,270,0.0,1.8,73,0.00,,,0.18,WUHU21623XXSP,2013-03-15 17:54:00,
2013-03-15 13:59:00,37.4,29.6,29.93,West,270,0.0,1.8,73,0.00,,,0.18,WUHU21623XXSP,2013-03-15 17:59:00,
2013-03-15 14:04:00,37.6,29.8,29.93,WNW,292,0.9,2.2,73,0.00,,,0.18,WUHU21623XXSP,2013-03-15 18:04:00,
2013-03-15 14:09:00,37.6,29.8,29.93,WSW,247,0.0,2.2,73,0.00,,,0.18,WUHU21623XXSP,2013-03-15 18:09:00,
2013-03-15 14:14:00,38.0,29.9,29.93,NW,315,3.4,3.4,72,0.00,,,0.18,WUHU21623XXSP,2013-03-15 18:14:00,
2013-03-15 14:19:00,38.2,30.0,29.92,NW,315,4.0,4.0,72,0.00,,,0.18,WUHU21623XXSP,2013-03-15 18:19:00,
2013-03-15 14:24:00,38.3,30.1,29.92,NW,318,2.6,4.0,72,0.00,,,0.18,WUHU21623XXSP,2013-03-15 18:24:00,
2013-03-15 14:29:00,38.5,30.3,29.92,SW,225,5.8,5.8,72,0.00,,,0.18,WUHU21623XXSP,2013-03-15 18:29:00,
2013-03-15 14:34:00,39.0,30.5,29.92,WNW,292,2.9,5.8,71,0.00,,,0.18,WUHU21623XXSP,2013-03-15 18:34:00,
2013-03-15 14:39:00,39.6,31.1,29.92,WNW,290,1.5,5.8,71,0.00,,,0.18,WUHU21623XXSP,2013-03-15 18:39:00,
2013-03-15 14:44:00,39.9,31.4,29.92,SW,225,4.3,4.3,71,0.00,,,0.18,WUHU21623XXSP,2013-03-15 18:44:00,
2013-03-15 14:49:00,40.5,32.0,29.92,NW,315,3.8,4.3,71,0.00,,,0.18,WUHU21623XXSP,2013-03-15 18:49:00,
2013-03-15 14:54:00,40.7,31.7,29.92,WSW,247,1.8,4.3,70,0.00,,,0.18,WUHU21623XXSP,2013-03-15 18:54:00,
2013-03-15 14:59:00,41.2,32.3,29.91,WSW,247,3.8,3.8,70,0.00,,,0.18,WUHU21623XXSP,2013-03-15 18:59:00,
2013-03-15 15:04:00,41.9,32.9,29.91,SSW,202,5.6,5.6,70,0.00,,,0.18,WUHU21623XXSP,2013-03-15 19:04:00,
2013-03-15 15:09:00,42.2,32.9,29.91,WNW,289,4.6,5.6,69,0.00,,,0.18,WUHU21623XXSP,2013-03-15 19:09:00,
2013-03-15 15:14:00,42.6,33.3,29.91,WSW,247,3.4,5.6,69,0.00,,,0.18,WUHU21623XXSP,2013-03-15 19:14:00,
2013-03-15 15:19:00,43.2,33.5,29.91,NW,315,7.2,7.2,68,0.00,,,0.18,WUHU21623XXSP,2013-03-15 19:19:00,
2013-03-15 15:24:00,43.4,33.7,29.91,WSW,244,2.1,7.2,68,0.00,,,0.18,WUHU21623XXSP,2013-03-15 19:24:00,
2013-03-15 15:29:00,43.6,33.9,29.91,WNW,298,4.2,7.2,68,0.00,,,0.18,WUHU21623XXSP,2013-03-15 19:29:00,
2013-03-15 15:34:00,43.9,33.8,29.90,WNW,292,1.1,6.0,67,0.00,,,0.18,WUHU21623XXSP,2013-03-15 19:34:00,
2013-03-15 15:39:00,44.2,34.4,29.90,WNW,292,4.5,4.5,68,0.00,,,0.18,WUHU21623XXSP,2013-03-15 19:39:00,
2013-03-15 15:44:00,44.4,34.2,29.90,WNW,292,3.1,4.5,67,0.00,,,0.18,WUHU21623XXSP,2013-03-15 19:44:00,
2013-03-15 15:49:00,44.7,34.5,29.89,NNW,337,0.7,4.5,67,0.00,,,0.18,WUHU21623XXSP,2013-03-15 19:49:00,
2013-03-15 15:54:00,44.8,34.6,29.89,WNW,292,1.0,3.1,67,0.00,,,0.18,WUHU21623XXSP,2013-03-15 19:54:00,
2013-03-15 15:59:00,45.1,34.9,29.90,NNW,345,0.8,1.1,67,0.00,,,0.18,WUHU21623XXSP,2013-03-15 19:59:00,
2013-03-15 16:04:00,45.1,34.9,29.89,SW,225,4.0,4.0,67,0.00,,,0.18,WUHU21623XXSP,2013-03-15 20:04:00,
2013-03-15 16:09:00,45.4,35.2,29.89,WNW,292,2.5,4.0,67,0.00,,,0.18,WUHU21623XXSP,2013-03-15 20:09:00,
2013-03-15 16:14:00,45.7,35.5,29.89,West,270,0.0,2.5,67,0.00,,,0.18,WUHU21623XXSP,2013-03-15 20:14:00,
2013-03-15 16:19:00,46.0,35.7,29.89,West,270,0.0,0.9,67,0.00,,,0.18,WUHU21623XXSP,2013-03-15 20:19:00,
2013-03-15 16:24:00,46.3,36.0,29.88,WNW,292,5.8,5.8,67,0.00,,,0.18,WUHU21623XXSP,2013-03-15 20:24:00,
2013-03-15 16:29:00,46.4,36.1,29.88,WNW,292,5.8,5.8,67,0.00,,,0.18,WUHU21623XXSP,2013-03-15 20:29:00,
2013-03-15 16:34:00,46.5,36.2,29.88,WSW,247,0.0,5.8,67,0.00,,,0.18,WUHU21623XXSP,2013-03-15 20:34:00,
2013-03-15 16:39:00,46.7,36.5,29.88,WNW,292,1.6,1.6,67,0.00,,,0.18,WUHU21623XXSP,2013-03-15 20:39:00,
2013-03-15 16:44:00,47.1,36.8,29.88,WNW,292,0.0,1.6,67,0.00,,,0.18,WUHU21623XXSP,2013-03-15 20:44:00,
2013-03-15 16:49:00,47.3,37.0,29.89,WNW,292,0.0,4.0,67,0.00,,,0.18,WUHU21623XXSP,2013-03-15 20:49:00,
2013-03-15 16:54:00,47.7,37.3,29.89,WSW,247,0.0,4.0,67,0.00,,,0.18,WUHU21623XXSP,2013-03-15 20:54:00,
2013-03-15 16:59:00,47.8,37.4,29.89,West,270,0.0,0.0,67,0.00,,,0.18,WUHU21623XXSP,2013-03-15 20:59:00,
2013-03-15 17:04:00,47.8,37.4,29.88,West,270,0.4,0.4,67,0.00,,,0.18,WUHU21623XXSP,2013-03-15 21:04:00,
2013-03-15 17:09:00,47.7,37.6,29.88,SW,225,0.9,0.9,68,0.00,,,0.18,WUHU21623XXSP,2013-03-15 21:09:00,
2013-03-15 17:14:00,47.7,37.6,29.89,WSW,247,0.0,0.9,68,0.00,,,0.18,WUHU21623XXSP,2013-03-15 21:14:00,
2013-03-15 17:19:00,47.5,37.4,29.89,WSW,247,1.3,1.3,68,0.00,,,0.18,WUHU21623XXSP,2013-03-15 21:19:00,
2013-03-15 17:24:00,47.5,37.8,29.89,WSW,247,1.1,1.3,69,0.00,,,0.18,WUHU21623XXSP,2013-03-15 21:24:00,
2013-03-15 17:29:00,47.1,37.5,29.89,WSW,247,0.0,1.1,69,0.00,,,0.18,WUHU21623XXSP,2013-03-15 21:29:00,
2013-03-15 17:34:00,47.1,37.9,29.90,West,270,0.0,1.1,70,0.00,,,0.18,WUHU21623XXSP,2013-03-15 21:34:00,
2013-03-15 17:39:00,46.6,37.4,29.89,West,270,0.0,0.9,70,0.00,,,0.18,WUHU21623XXSP,2013-03-15 21:39:00,
2013-03-15 17:44:00,46.2,37.4,29.89,WNW,292,0.0,0.0,71,0.00,,,0.18,WUHU21623XXSP,2013-03-15 21:44:00,
2013-03-15 17:49:00,46.0,37.2,29.89,SW,225,0.7,0.7,71,0.00,,,0.18,WUHU21623XXSP,2013-03-15 21:49:00,
2013-03-15 17:54:00,45.9,37.4,29.89,WSW,247,0.0,0.7,72,0.00,,,0.18,WUHU21623XXSP,2013-03-15 21:54:00,
2013-03-15 17:59:00,45.7,37.2,29.89,WSW,247,0.0,0.7,72,0.00,,,0.18,WUHU21623XXSP,2013-03-15 21:59:00,
2013-03-15 18:04:00,45.3,36.8,29.89,WSW,247,0.0,0.0,72,0.00,,,0.18,WUHU21623XXSP,2013-03-15 22:04:00,
2013-03-15 18:09:00,45.3,37.2,29.88,WSW,247,0.0,0.0,73,0.00,,,0.18,WUHU21623XXSP,2013-03-15 22:09:00,
2013-03-15 18:14:00,45.1,37.0,29.88,WSW,247,0.0,0.0,73,0.00,,,0.18,WUHU21623XXSP,2013-03-15 22:14:00,
2013-03-15 18:19:00,45.1,37.0,29.88,WSW,247,0.0,0.0,73,0.00,,,0.18,WUHU21623XXSP,2013-03-15 22:19:00,
2013-03-15 18:24:00,45.1,37.3,29.89,WSW,247,0.0,0.0,74,0.00,,,0.18,WUHU21623XXSP,2013-03-15 22:24:00,
2013-03-15 18:29:00,45.1,37.3,29.89,WSW,247,0.0,0.0,74,0.00,,,0.18,WUHU21623XXSP,2013-03-15 22:29:00,
2013-03-15 18:34:00,45.0,37.5,29.88,WSW,247,0.0,0.0,75,0.00,,,0.18,WUHU21623XXSP,2013-03-15 22:34:00,
2013-03-15 18:39:00,45.0,37.5,29.88,WSW,247,0.0,0.0,75,0.00,,,0.18,WUHU21623XXSP,2013-03-15 22:39:00,
2013-03-15 18:44:00,44.8,37.3,29.88,WSW,247,0.0,0.0,75,0.00,,,0.18,WUHU21623XXSP,2013-03-15 22:44:00,
2013-03-15 18:49:00,44.6,37.1,29.87,WSW,247,0.0,0.0,75,0.00,,,0.18,WUHU21623XXSP,2013-03-15 22:49:00,
2013-03-15 18:54:00,44.4,37.0,29.88,WSW,247,0.0,0.0,75,0.00,,,0.18,WUHU21623XXSP,2013-03-15 22:54:00,
2013-03-15 18:59:00,44.4,37.0,29.87,WSW,247,0.0,0.0,75,0.00,,,0.18,WUHU21623XXSP,2013-03-15 22:59:00,
2013-03-15 19:04:00,44.4,37.3,29.88,WSW,247,0.0,0.0,76,0.00,,,0.18,WUHU21623XXSP,2013-03-15 23:04:00,
2013-03-15 19:09:00,44.4,37.3,29.87,WSW,247,0.0,0.0,76,0.00,,,0.18,WUHU21623XXSP,2013-03-15 23:09:00,
2013-03-15 19:14:00,44.4,37.3,29.87,WSW,247,0.0,0.0,76,0.00,,,0.18,WUHU21623XXSP,2013-03-15 23:14:00,
2013-03-15 19:19:00,44.2,37.1,29.87,WSW,247,0.0,0.0,76,0.00,,,0.18,WUHU21623XXSP,2013-03-15 23:19:00,
2013-03-15 19:24:00,44.1,37.3,29.87,WSW,247,0.0,0.0,77,0.00,,,0.18,WUHU21623XXSP,2013-03-15 23:24:00,
2013-03-15 19:29:00,44.1,37.3,29.87,WSW,247,0.0,0.0,77,0.00,,,0.18,WUHU21623XXSP,2013-03-15 23:29:00,
2013-03-15 19:34:00,43.9,37.1,29.87,WSW,247,0.0,0.0,77,0.00,,,0.18,WUHU21623XXSP,2013-03-15 23:34:00,
2013-03-15 19:39:00,43.7,36.9,29.85,WSW,247,0.0,0.0,77,0.00,,,0.18,WUHU21623XXSP,2013-03-15 23:39:00,
2013-03-15 19:44:00,43.7,37.3,29.85,SE,135,0.0,0.0,78,0.00,,,0.18,WUHU21623XXSP,2013-03-15 23:44:00,
2013-03-15 19:49:00,43.5,37.1,29.87,SE,135,0.0,0.0,78,0.00,,,0.18,WUHU21623XXSP,2013-03-15 23:49:00,
2013-03-15 19:54:00,43.5,37.1,29.87,SE,135,0.0,0.0,78,0.00,,,0.18,WUHU21623XXSP,2013-03-15 23:54:00,
2013-03-15 19:59:00,43.3,36.9,29.86,SE,135,0.0,0.0,78,0.00,,,0.18,WUHU21623XXSP,2013-03-15 23:59:00,
2013-03-15 20:04:00,43.3,36.9,29.86,SE,135,0.0,0.0,78,0.00,,,0.18,WUHU21623XXSP,2013-03-16 00:04:00,
2013-03-15 20:09:00,43.2,36.7,29.86,SE,135,0.0,0.0,78,0.00,,,0.18,WUHU21623XXSP,2013-03-16 00:09:00,
2013-03-15 20:14:00,43.0,36.6,29.86,SE,135,0.0,0.0,78,0.00,,,0.18,WUHU21623XXSP,2013-03-16 00:14:00,
2013-03-15 20:19:00,43.0,36.6,29.85,SE,135,0.0,0.0,78,0.00,,,0.18,WUHU21623XXSP,2013-03-16 00:19:00,
2013-03-15 20:24:00,43.0,36.6,29.86,SE,135,0.0,0.0,78,0.00,,,0.18,WUHU21623XXSP,2013-03-16 00:24:00,
2013-03-15 20:29:00,43.0,36.6,29.86,SE,135,0.0,0.0,78,0.00,,,0.18,WUHU21623XXSP,2013-03-16 00:29:00,
2013-03-15 20:34:00,42.6,36.5,29.85,SE,135,0.0,0.0,79,0.00,,,0.18,WUHU21623XXSP,2013-03-16 00:34:00,
2013-03-15 20:39:00,42.6,36.5,29.85,SE,135,0.0,0.0,79,0.00,,,0.18,WUHU21623XXSP,2013-03-16 00:39:00,
2013-03-15 20:44:00,42.6,36.5,29.86,SE,135,0.0,0.0,79,0.00,,,0.18,WUHU21623XXSP,2013-03-16 00:44:00,
2013-03-15 20:49:00,42.6,36.5,29.87,ESE,112,0.0,0.0,79,0.00,,,0.18,WUHU21623XXSP,2013-03-16 00:49:00,
2013-03-15 20:54:00,42.6,36.9,29.85,ESE,112,0.0,0.0,80,0.00,,,0.18,WUHU21623XXSP,2013-03-16 00:54:00,
2013-03-15 21:00:00,42.4,36.7,29.86,ESE,112,0.0,0.0,80,0.00,,,0.18,WUHU21623XXSP,2013-03-16 01:00:00,
2013-03-15 21:05:00,42.4,36.7,29.86,ESE,112,0.0,0.0,80,0.00,,,0.18,WUHU21623XXSP,2013-03-16 01:05:00,
2013-03-15 21:10:00,42.4,36.7,29.87,ESE,112,0.0,0.0,80,0.00,,,0.18,WUHU21623XXSP,2013-03-16 01:10:00,
2013-03-15 21:15:00,42.4,36.7,29.86,ESE,112,0.0,0.0,80,0.00,,,0.18,WUHU21623XXSP,2013-03-16 01:15:00,
2013-03-15 21:20:00,42.4,36.7,29.85,ESE,112,0.0,0.0,80,0.00,,,0.18,WUHU21623XXSP,2013-03-16 01:20:00,
2013-03-15 21:24:00,42.1,36.3,29.85,ESE,112,0.0,0.0,80,0.00,,,0.18,WUHU21623XXSP,2013-03-16 01:24:00,
2013-03-15 21:29:00,42.1,36.3,29.85,ESE,112,0.0,0.0,80,0.00,,,0.18,WUHU21623XXSP,2013-03-16 01:29:00,
2013-03-15 21:34:00,42.1,36.6,29.85,ESE,112,0.0,0.0,81,0.00,,,0.18,WUHU21623XXSP,2013-03-16 01:34:00,
2013-03-15 21:39:00,42.1,36.6,29.84,ESE,112,0.0,0.0,81,0.00,,,0.18,WUHU21623XXSP,2013-03-16 01:39:00,
2013-03-15 21:44:00,41.9,36.4,29.85,ESE,112,0.0,0.0,81,0.00,,,0.18,WUHU21623XXSP,2013-03-16 01:44:00,
2013-03-15 21:49:00,41.9,36.4,29.85,ESE,112,0.0,0.0,81,0.00,,,0.18,WUHU21623XXSP,2013-03-16 01:49:00,
2013-03-15 21:54:00,41.9,36.4,29.84,East,90,0.0,0.0,81,0.00,,,0.18,WUHU21623XXSP,2013-03-16 01:54:00,
2013-03-15 21:59:00,41.7,36.3,29.84,East,90,0.0,0.0,81,0.00,,,0.18,WUHU21623XXSP,2013-03-16 01:59:00,
2013-03-15 22:04:00,41.7,36.3,29.84,SE,135,0.0,0.0,81,0.00,,,0.18,WUHU21623XXSP,2013-03-16 02:04:00,
2013-03-15 22:09:00,41.7,36.6,29.83,East,90,0.7,0.7,82,0.00,,,0.18,WUHU21623XXSP,2013-03-16 02:09:00,
2013-03-15 22:14:00,41.7,36.6,29.83,South,180,0.0,0.7,82,0.00,,,0.18,WUHU21623XXSP,2013-03-16 02:14:00,
2013-03-15 22:19:00,41.7,36.9,29.82,ESE,112,0.9,0.9,83,0.00,,,0.18,WUHU21623XXSP,2013-03-16 02:19:00,
2013-03-15 22:24:00,41.7,36.9,29.83,ESE,112,1.3,1.3,83,0.00,,,0.18,WUHU21623XXSP,2013-03-16 02:24:00,
2013-03-15 22:29:00,41.7,36.9,29.82,ESE,112,0.0,1.3,83,0.00,,,0.18,WUHU21623XXSP,2013-03-16 02:29:00,
2013-03-15 22:34:00,41.7,36.9,29.81,ESE,112,0.0,1.3,83,0.00,,,0.18,WUHU21623XXSP,2013-03-16 02:34:00,
2013-03-15 22:39:00,41.7,37.2,29.81,ESE,112,1.6,1.6,84,0.00,,,0.18,WUHU21623XXSP,2013-03-16 02:39:00,
2013-03-15 22:44:00,41.7,37.2,29.80,South,180,0.0,1.6,84,0.00,,,0.18,WUHU21623XXSP,2013-03-16 02:44:00,
2013-03-15 22:49:00,41.7,37.2,29.81,South,180,0.0,1.3,84,0.00,,,0.18,WUHU21623XXSP,2013-03-16 02:49:00,
2013-03-15 22:54:00,41.7,37.2,29.81,SSE,157,0.0,0.0,84,0.00,,,0.18,WUHU21623XXSP,2013-03-16 02:54:00,
2013-03-15 22:59:00,41.7,37.2,29.81,SSE,157,0.0,0.0,84,0.00,,,0.18,WUHU21623XXSP,2013-03-16 02:59:00,
2013-03-15 23:04:00,41.9,37.4,29.81,SSE,157,0.0,0.0,84,0.00,,,0.18,WUHU21623XXSP,2013-03-16 03:04:00,
2013-03-15 23:09:00,41.9,37.4,29.81,SSE,157,0.0,0.0,84,0.00,,,0.18,WUHU21623XXSP,2013-03-16 03:09:00,
2013-03-15 23:14:00,41.7,37.2,29.81,WSW,247,1.6,1.6,84,0.00,,,0.18,WUHU21623XXSP,2013-03-16 03:14:00,
2013-03-15 23:19:00,41.7,37.5,29.81,WSW,247,1.2,1.6,85,0.00,,,0.18,WUHU21623XXSP,2013-03-16 03:19:00,
2013-03-15 23:24:00,41.7,37.5,29.81,SW,225,4.5,4.5,85,0.00,,,0.18,WUHU21623XXSP,2013-03-16 03:24:00,
2013-03-15 23:29:00,41.7,37.5,29.81,WSW,247,6.5,6.5,85,0.00,,,0.18,WUHU21623XXSP,2013-03-16 03:29:00,
2013-03-15 23:34:00,41.7,37.5,29.80,WSW,247,2.2,6.5,85,0.00,,,0.18,WUHU21623XXSP,2013-03-16 03:34:00,
2013-03-15 23:39:00,41.7,37.5,29.80,WSW,247,5.8,6.5,85,0.00,,,0.18,WUHU21623XXSP,2013-03-16 03:39:00,
2013-03-15 23:44:00,41.7,37.5,29.80,WSW,247,2.0,5.8,85,0.00,,,0.18,WUHU21623XXSP,2013-03-16 03:44:00,
2013-03-15 23:49:00,41.9,37.7,29.79,West,270,0.4,5.6,85,0.00,,,0.18,WUHU21623XXSP,2013-03-16 03:49:00,
2013-03-15 23:54:00,41.9,37.7,29.79,SSE,157,0.0,0.4,85,0.00,,,0.18,WUHU21623XXSP,2013-03-16 03:54:00,
2013-03-15 23:59:00,41.9,37.7,29.79,SE,135,0.0,0.0,85,0.00,,,0.18,WUHU21623XXSP,2013-03-16 03:59:00,